Time,TemperatureF,DewpointF,PressureIn,WindDirection,WindDirectionDegrees,WindSpeedMPH,WindSpeedGustMPH,Humidity,HourlyPrecipIn,Conditions,Clouds,dailyrainin,SoftwareType,DateUTC
2013-02-11 00:00:00,52.8,42.2,30.00,NNW,340,1.0,1.0,67,0.00,,,0.69,VWS V14.01,2013-02-11 06:00:00,
2013-02-11 00:05:00,53.3,42.2,30.00,NNW,341,1.0,1.0,66,0.00,,,0.00,VWS V14.01,2013-02-11 06:05:00,
2013-02-11 00:10:00,53.8,41.9,30.00,NNE,30,2.0,2.0,64,0.00,,,0.00,VWS V14.01,2013-02-11 06:10:00,
2013-02-11 00:15:00,54.3,41.6,29.99,NNE,28,2.0,2.0,62,0.00,,,0.00,VWS V14.01,2013-02-11 06:15:00,
2013-02-11 00:20:00,54.5,41.3,29.99,NNE,21,3.0,3.0,61,0.00,,,0.00,VWS V14.01,2013-02-11 06:20:00,
2013-02-11 00:25:00,54.8,41.2,29.98,NNE,14,4.0,5.0,60,0.00,,,0.00,VWS V14.01,2013-02-11 06:25:00,
2013-02-11 00:30:00,55.5,40.1,29.98,North,355,3.0,7.0,56,0.00,,,0.00,VWS V14.01,2013-02-11 06:30:00,
2013-02-11 00:35:00,55.8,40.8,29.99,North,352,0.0,3.0,57,0.00,,,0.00,VWS V14.01,2013-02-11 06:35:00,
2013-02-11 00:40:00,55.4,42.6,30.00,North,352,1.0,1.0,62,0.00,,,0.00,VWS V14.01,2013-02-11 06:40:00,
2013-02-11 00:45:00,55.0,41.8,30.00,SE,146,1.0,3.0,61,0.00,,,0.00,VWS V14.01,2013-02-11 06:45:00,
2013-02-11 00:50:00,54.7,42.4,29.99,NNE,18,1.0,1.0,63,0.00,,,0.00,VWS V14.01,2013-02-11 06:50:00,
2013-02-11 00:55:00,54.4,42.5,30.00,NNE,18,0.0,1.0,64,0.00,,,0.00,VWS V14.01,2013-02-11 06:55:00,
2013-02-11 00:59:00,54.3,42.4,29.99,NNW,339,3.0,4.0,64,0.00,,,0.00,VWS V14.01,2013-02-11 06:59:00,
2013-02-11 01:00:00,53.4,43.5,29.99,NE,52,0.0,1.0,69,0.00,,,0.00,VWS V14.01,2013-02-11 07:00:00,
2013-02-11 01:05:00,54.4,42.5,30.00,NNW,340,0.0,3.0,64,0.00,,,0.00,VWS V14.01,2013-02-11 07:05:00,
2013-02-11 01:09:00,54.3,42.8,30.00,SSW,213,1.0,3.0,65,0.00,,,0.00,VWS V14.01,2013-02-11 07:09:00,
2013-02-11 01:10:00,53.1,43.6,29.99,NE,52,0.0,0.0,70,0.00,,,0.00,VWS V14.01,2013-02-11 07:10:00,
2013-02-11 01:14:00,54.4,43.3,30.00,SSW,213,0.0,0.0,66,0.00,,,0.00,VWS V14.01,2013-02-11 07:14:00,
2013-02-11 01:15:00,53.1,43.2,29.99,NE,52,0.0,0.0,69,0.00,,,0.00,VWS V14.01,2013-02-11 07:15:00,
2013-02-11 01:19:00,54.2,43.5,30.01,SSW,213,1.0,1.0,67,0.00,,,0.00,VWS V14.01,2013-02-11 07:19:00,
2013-02-11 01:20:00,53.0,42.7,30.00,NE,52,1.0,1.0,68,0.00,,,0.00,VWS V14.01,2013-02-11 07:20:00,
2013-02-11 01:24:00,53.8,43.1,30.01,East,101,2.0,3.0,67,0.00,,,0.00,VWS V14.01,2013-02-11 07:24:00,
2013-02-11 01:25:00,53.2,42.9,30.00,NE,52,1.0,1.0,68,0.00,,,0.00,VWS V14.01,2013-02-11 07:25:00,
2013-02-11 01:29:00,53.8,43.1,30.00,East,94,2.0,3.0,67,0.00,,,0.00,VWS V14.01,2013-02-11 07:29:00,
2013-02-11 01:30:00,53.3,42.6,30.00,ENE,71,2.0,2.0,67,0.00,,,0.00,VWS V14.01,2013-02-11 07:30:00,
2013-02-11 01:34:00,53.8,43.5,30.00,East,94,1.0,2.0,68,0.00,,,0.00,VWS V14.01,2013-02-11 07:34:00,
2013-02-11 01:35:00,53.5,42.4,30.00,ENE,72,2.0,2.0,66,0.00,,,0.00,VWS V14.01,2013-02-11 07:35:00,
2013-02-11 01:39:00,53.7,44.2,30.00,East,94,0.0,2.0,70,0.00,,,0.00,VWS V14.01,2013-02-11 07:39:00,
2013-02-11 01:40:00,53.6,42.9,30.00,ENE,72,0.0,2.0,67,0.00,,,0.00,VWS V14.01,2013-02-11 07:40:00,
2013-02-11 01:44:00,53.6,43.3,29.99,East,94,2.0,2.0,68,0.00,,,0.00,VWS V14.01,2013-02-11 07:44:00,
2013-02-11 01:45:00,53.6,42.9,30.00,ENE,70,0.0,1.0,67,0.00,,,0.00,VWS V14.01,2013-02-11 07:45:00,
2013-02-11 01:49:00,53.6,43.7,29.99,SE,130,2.0,3.0,69,0.00,,,0.00,VWS V14.01,2013-02-11 07:49:00,
2013-02-11 01:50:00,53.6,42.5,30.00,NE,39,1.0,1.0,66,0.00,,,0.00,VWS V14.01,2013-02-11 07:50:00,
2013-02-11 01:54:00,53.5,43.6,29.99,NE,52,0.0,2.0,69,0.00,,,0.00,VWS V14.01,2013-02-11 07:54:00,
2013-02-11 01:55:00,53.7,42.2,30.00,NE,40,1.0,1.0,65,0.00,,,0.00,VWS V14.01,2013-02-11 07:55:00,
2013-02-11 01:59:00,53.4,43.5,29.99,NE,52,0.0,1.0,69,0.00,,,0.00,VWS V14.01,2013-02-11 07:59:00,
2013-02-11 02:00:00,53.9,42.0,29.98,NE,40,1.0,2.0,64,0.00,,,0.00,VWS V14.01,2013-02-11 08:00:00,
2013-02-11 02:04:00,53.3,43.4,29.99,NE,52,0.0,0.0,69,0.00,,,0.00,VWS V14.01,2013-02-11 08:04:00,
2013-02-11 02:05:00,53.7,42.2,29.97,NE,47,2.0,3.0,65,0.00,,,0.00,VWS V14.01,2013-02-11 08:05:00,
2013-02-11 02:09:00,53.2,43.7,29.99,NE,52,0.0,0.0,70,0.00,,,0.00,VWS V14.01,2013-02-11 08:09:00,
2013-02-11 02:10:00,53.7,41.4,29.97,NE,52,1.0,3.0,63,0.00,,,0.00,VWS V14.01,2013-02-11 08:10:00,
2013-02-11 02:14:00,53.0,43.1,29.99,NE,52,0.0,0.0,69,0.00,,,0.00,VWS V14.01,2013-02-11 08:14:00,
2013-02-11 02:15:00,53.6,41.3,29.98,ENE,59,0.0,2.0,63,0.00,,,0.00,VWS V14.01,2013-02-11 08:15:00,
2013-02-11 02:19:00,53.0,42.7,30.00,NE,52,0.0,1.0,68,0.00,,,0.00,VWS V14.01,2013-02-11 08:19:00,
2013-02-11 02:20:00,53.5,41.2,29.98,ENE,59,0.0,0.0,63,0.00,,,0.00,VWS V14.01,2013-02-11 08:20:00,
2013-02-11 02:24:00,53.1,42.8,30.00,NE,52,1.0,1.0,68,0.00,,,0.00,VWS V14.01,2013-02-11 08:24:00,
2013-02-11 02:25:00,53.4,40.7,29.99,ENE,59,0.0,0.0,62,0.00,,,0.00,VWS V14.01,2013-02-11 08:25:00,
2013-02-11 02:29:00,53.3,43.0,30.00,ENE,71,2.0,2.0,68,0.00,,,0.00,VWS V14.01,2013-02-11 08:29:00,
2013-02-11 02:30:00,53.2,41.0,29.98,NNE,29,0.0,1.0,63,0.00,,,0.00,VWS V14.01,2013-02-11 08:30:00,
2013-02-11 02:34:00,53.5,42.4,30.00,ENE,72,1.0,2.0,66,0.00,,,0.00,VWS V14.01,2013-02-11 08:34:00,
2013-02-11 02:35:00,53.2,41.3,29.98,NNE,29,0.0,1.0,64,0.00,,,0.00,VWS V14.01,2013-02-11 08:35:00,
2013-02-11 02:39:00,53.6,42.9,30.00,ENE,72,0.0,2.0,67,0.00,,,0.00,VWS V14.01,2013-02-11 08:39:00,
2013-02-11 02:40:00,52.8,41.4,29.99,ENE,67,1.0,2.0,65,0.00,,,0.00,VWS V14.01,2013-02-11 08:40:00,
2013-02-11 02:44:00,53.6,42.9,30.00,ENE,71,0.0,1.0,67,0.00,,,0.00,VWS V14.01,2013-02-11 08:44:00,
2013-02-11 02:45:00,52.9,40.7,30.00,ENE,64,0.0,1.0,63,0.00,,,0.00,VWS V14.01,2013-02-11 08:45:00,
2013-02-11 02:49:00,53.6,42.5,30.00,NE,39,1.0,1.0,66,0.00,,,0.00,VWS V14.01,2013-02-11 08:49:00,
2013-02-11 02:50:00,52.8,41.8,30.00,NE,36,0.0,0.0,66,0.00,,,0.00,VWS V14.01,2013-02-11 08:50:00,
2013-02-11 02:54:00,53.7,42.6,30.00,NE,40,0.0,1.0,66,0.00,,,0.00,VWS V14.01,2013-02-11 08:54:00,
2013-02-11 02:55:00,53.0,41.6,30.00,NE,36,0.0,1.0,65,0.00,,,0.00,VWS V14.01,2013-02-11 08:55:00,
2013-02-11 02:59:00,53.9,42.0,29.98,NE,40,1.0,2.0,64,0.00,,,0.00,VWS V14.01,2013-02-11 08:59:00,
2013-02-11 03:00:00,53.4,40.7,29.99,NE,36,1.0,1.0,62,0.00,,,0.00,VWS V14.01,2013-02-11 09:00:00,
2013-02-11 03:04:00,53.8,42.3,29.97,NE,43,2.0,2.0,65,0.00,,,0.00,VWS V14.01,2013-02-11 09:04:00,
2013-02-11 03:05:00,53.9,41.6,29.98,NE,37,1.0,2.0,63,0.00,,,0.00,VWS V14.01,2013-02-11 09:05:00,
2013-02-11 03:09:00,53.6,41.3,29.97,NE,47,1.0,3.0,63,0.00,,,0.00,VWS V14.01,2013-02-11 09:09:00,
2013-02-11 03:10:00,53.6,42.5,29.98,NE,50,1.0,3.0,66,0.00,,,0.00,VWS V14.01,2013-02-11 09:10:00,
2013-02-11 03:14:00,53.6,41.3,29.98,ENE,59,0.0,2.0,63,0.00,,,0.00,VWS V14.01,2013-02-11 09:14:00,
2013-02-11 03:15:00,53.4,42.3,29.97,ENE,68,3.0,4.0,66,0.00,,,0.00,VWS V14.01,2013-02-11 09:15:00,
2013-02-11 03:19:00,53.5,41.2,29.98,ENE,59,0.0,0.0,63,0.00,,,0.00,VWS V14.01,2013-02-11 09:19:00,
2013-02-11 03:20:00,53.4,41.5,29.97,East,84,4.0,4.0,64,0.00,,,0.00,VWS V14.01,2013-02-11 09:20:00,
2013-02-11 03:24:00,53.4,40.7,29.99,ENE,59,0.0,0.0,62,0.00,,,0.00,VWS V14.01,2013-02-11 09:24:00,
2013-02-11 03:25:00,53.6,41.7,29.97,East,84,3.0,5.0,64,0.00,,,0.00,VWS V14.01,2013-02-11 09:25:00,
2013-02-11 03:29:00,53.3,41.0,29.98,NNE,29,0.0,1.0,63,0.00,,,0.00,VWS V14.01,2013-02-11 09:29:00,
2013-02-11 03:30:00,53.8,41.1,29.97,East,90,1.0,4.0,62,0.00,,,0.00,VWS V14.01,2013-02-11 09:30:00,
2013-02-11 03:34:00,53.2,41.3,29.98,NNE,30,0.0,1.0,64,0.00,,,0.00,VWS V14.01,2013-02-11 09:34:00,
2013-02-11 03:35:00,53.7,41.0,29.98,ENE,63,1.0,2.0,62,0.00,,,0.00,VWS V14.01,2013-02-11 09:35:00,
2013-02-11 03:39:00,52.8,41.4,29.99,ENE,67,1.0,2.0,65,0.00,,,0.00,VWS V14.01,2013-02-11 09:39:00,
2013-02-11 03:40:00,53.7,40.6,29.97,NE,56,2.0,3.0,61,0.00,,,0.00,VWS V14.01,2013-02-11 09:40:00,
2013-02-11 03:44:00,52.9,40.7,30.00,ENE,64,0.0,1.0,63,0.00,,,0.00,VWS V14.01,2013-02-11 09:44:00,
2013-02-11 03:45:00,53.8,40.3,29.98,NE,40,2.0,3.0,60,0.00,,,0.00,VWS V14.01,2013-02-11 09:45:00,
2013-02-11 03:49:00,52.9,42.3,30.00,NE,52,0.0,0.0,67,0.00,,,0.00,VWS V14.01,2013-02-11 09:49:00,
2013-02-11 03:50:00,54.0,40.0,29.98,NE,45,1.0,3.0,59,0.00,,,0.00,VWS V14.01,2013-02-11 09:50:00,
2013-02-11 03:54:00,52.9,41.5,30.00,NE,36,0.0,1.0,65,0.00,,,0.00,VWS V14.01,2013-02-11 09:54:00,
2013-02-11 03:55:00,53.6,40.5,29.98,NE,45,0.0,1.0,61,0.00,,,0.00,VWS V14.01,2013-02-11 09:55:00,
2013-02-11 03:59:00,53.4,40.7,29.99,NE,36,0.0,1.0,62,0.00,,,0.00,VWS V14.01,2013-02-11 09:59:00,
2013-02-11 04:00:00,53.0,39.9,29.98,NE,45,1.0,1.0,61,0.00,,,0.00,VWS V14.01,2013-02-11 10:00:00,
2013-02-11 04:04:00,53.8,41.1,29.98,NE,36,1.0,2.0,62,0.00,,,0.00,VWS V14.01,2013-02-11 10:04:00,
2013-02-11 04:05:00,53.0,40.3,29.99,NE,45,0.0,1.0,62,0.00,,,0.00,VWS V14.01,2013-02-11 10:05:00,
2013-02-11 04:09:00,53.7,42.2,29.98,ENE,70,2.0,3.0,65,0.00,,,0.00,VWS V14.01,2013-02-11 10:09:00,
2013-02-11 04:10:00,52.6,40.0,29.99,NE,45,0.0,0.0,62,0.00,,,0.00,VWS V14.01,2013-02-11 10:10:00,
2013-02-11 04:14:00,53.3,42.2,29.97,ENE,77,2.0,4.0,66,0.00,,,0.00,VWS V14.01,2013-02-11 10:14:00,
2013-02-11 04:15:00,52.5,39.9,30.01,NNW,347,2.0,2.0,62,0.00,,,0.00,VWS V14.01,2013-02-11 10:15:00,
2013-02-11 04:19:00,53.4,41.5,29.97,ENE,68,2.0,4.0,64,0.00,,,0.00,VWS V14.01,2013-02-11 10:19:00,
2013-02-11 04:20:00,52.4,40.2,30.00,NNW,346,1.0,2.0,63,0.00,,,0.00,VWS V14.01,2013-02-11 10:20:00,
2013-02-11 04:24:00,53.6,41.7,29.97,East,85,5.0,5.0,64,0.00,,,0.00,VWS V14.01,2013-02-11 10:24:00,
2013-02-11 04:25:00,52.4,40.2,30.00,NNW,346,0.0,1.0,63,0.00,,,0.00,VWS V14.01,2013-02-11 10:25:00,
2013-02-11 04:29:00,53.8,41.1,29.97,East,94,1.0,4.0,62,0.00,,,0.00,VWS V14.01,2013-02-11 10:29:00,
2013-02-11 04:30:00,52.1,40.7,30.01,NNW,346,0.0,1.0,65,0.00,,,0.00,VWS V14.01,2013-02-11 10:30:00,
2013-02-11 04:34:00,53.7,41.0,29.98,ENE,63,0.0,2.0,62,0.00,,,0.00,VWS V14.01,2013-02-11 10:34:00,
2013-02-11 04:35:00,51.8,40.8,30.01,NNW,345,0.0,0.0,66,0.00,,,0.00,VWS V14.01,2013-02-11 10:35:00,
2013-02-11 04:39:00,53.7,40.6,29.97,NE,49,2.0,2.0,61,0.00,,,0.00,VWS V14.01,2013-02-11 10:39:00,
2013-02-11 04:40:00,51.8,42.3,30.01,NNW,346,0.0,0.0,70,0.00,,,0.00,VWS V14.01,2013-02-11 10:40:00,
2013-02-11 04:44:00,53.8,40.7,29.98,NE,39,2.0,3.0,61,0.00,,,0.00,VWS V14.01,2013-02-11 10:44:00,
2013-02-11 04:45:00,51.9,43.2,30.01,NNW,346,0.0,0.0,72,0.00,,,0.00,VWS V14.01,2013-02-11 10:45:00,
2013-02-11 04:49:00,54.0,40.4,29.98,NE,45,2.0,3.0,60,0.00,,,0.00,VWS V14.01,2013-02-11 10:49:00,
2013-02-11 04:50:00,52.1,42.6,30.00,NNE,33,2.0,2.0,70,0.00,,,0.00,VWS V14.01,2013-02-11 10:50:00,
2013-02-11 04:54:00,53.7,40.6,29.98,NE,45,0.0,1.0,61,0.00,,,0.00,VWS V14.01,2013-02-11 10:54:00,
2013-02-11 04:55:00,52.8,41.0,30.00,NNE,33,2.0,3.0,64,0.00,,,0.00,VWS V14.01,2013-02-11 10:55:00,
2013-02-11 04:59:00,53.0,39.9,29.98,NE,45,1.0,1.0,61,0.00,,,0.00,VWS V14.01,2013-02-11 10:59:00,
2013-02-11 05:00:00,53.5,40.8,30.01,NNE,33,0.0,2.0,62,0.00,,,0.00,VWS V14.01,2013-02-11 11:00:00,
2013-02-11 05:04:00,53.0,40.3,29.99,NE,45,0.0,1.0,62,0.00,,,0.00,VWS V14.01,2013-02-11 11:04:00,
2013-02-11 05:05:00,53.6,40.9,30.01,NNE,33,0.0,0.0,62,0.00,,,0.00,VWS V14.01,2013-02-11 11:05:00,
2013-02-11 05:09:00,52.7,40.1,29.99,NE,45,0.0,0.0,62,0.00,,,0.00,VWS V14.01,2013-02-11 11:09:00,
2013-02-11 05:10:00,53.6,41.3,30.01,NNE,33,0.0,1.0,63,0.00,,,0.00,VWS V14.01,2013-02-11 11:10:00,
2013-02-11 05:14:00,52.5,39.9,30.00,NNE,16,1.0,1.0,62,0.00,,,0.00,VWS V14.01,2013-02-11 11:14:00,
2013-02-11 05:15:00,53.4,41.1,30.01,NNE,33,0.0,1.0,63,0.00,,,0.00,VWS V14.01,2013-02-11 11:15:00,
2013-02-11 05:19:00,52.5,40.3,30.00,NNW,345,2.0,2.0,63,0.00,,,0.00,VWS V14.01,2013-02-11 11:19:00,
2013-02-11 05:20:00,53.4,41.1,30.01,NNE,33,0.0,1.0,63,0.00,,,0.00,VWS V14.01,2013-02-11 11:20:00,
2013-02-11 05:24:00,52.4,40.2,30.00,NNW,345,0.0,1.0,63,0.00,,,0.00,VWS V14.01,2013-02-11 11:24:00,
2013-02-11 05:25:00,53.5,41.6,30.01,NNE,14,2.0,2.0,64,0.00,,,0.00,VWS V14.01,2013-02-11 11:25:00,
2013-02-11 05:29:00,52.1,40.7,30.01,NNW,345,0.0,1.0,65,0.00,,,0.00,VWS V14.01,2013-02-11 11:29:00,
2013-02-11 05:30:00,53.9,40.3,30.01,NNE,18,3.0,4.0,60,0.00,,,0.00,VWS V14.01,2013-02-11 11:30:00,
2013-02-11 05:34:00,51.8,40.8,30.01,NNW,345,0.0,0.0,66,0.00,,,0.00,VWS V14.01,2013-02-11 11:34:00,
2013-02-11 05:35:00,54.3,40.7,30.01,NNE,20,2.0,4.0,60,0.00,,,0.00,VWS V14.01,2013-02-11 11:35:00,
2013-02-11 05:39:00,51.9,42.1,30.01,NNW,345,0.0,0.0,69,0.00,,,0.00,VWS V14.01,2013-02-11 11:39:00,
2013-02-11 05:40:00,54.3,41.2,30.01,NNE,16,3.0,3.0,61,0.00,,,0.00,VWS V14.01,2013-02-11 11:40:00,
2013-02-11 05:44:00,51.9,42.8,30.01,NNW,345,0.0,0.0,71,0.00,,,0.00,VWS V14.01,2013-02-11 11:44:00,
2013-02-11 05:45:00,54.2,41.5,30.02,North,350,1.0,4.0,62,0.00,,,0.00,VWS V14.01,2013-02-11 11:45:00,
2013-02-11 05:49:00,52.0,43.3,30.00,NNE,15,2.0,2.0,72,0.00,,,0.00,VWS V14.01,2013-02-11 11:49:00,
2013-02-11 05:50:00,54.1,41.8,30.02,NNW,338,4.0,5.0,63,0.00,,,0.00,VWS V14.01,2013-02-11 11:50:00,
2013-02-11 05:54:00,52.6,41.2,30.00,NNE,33,2.0,3.0,65,0.00,,,0.00,VWS V14.01,2013-02-11 11:54:00,
2013-02-11 05:55:00,54.0,41.7,30.02,North,350,5.0,7.0,63,0.00,,,0.00,VWS V14.01,2013-02-11 11:55:00,
2013-02-11 05:59:00,53.4,40.7,30.00,NE,34,1.0,2.0,62,0.00,,,0.00,VWS V14.01,2013-02-11 11:59:00,
2013-02-11 06:00:00,53.9,41.6,30.02,NNW,338,6.0,7.0,63,0.00,,,0.00,VWS V14.01,2013-02-11 12:00:00,
2013-02-11 06:04:00,53.6,41.3,30.01,NNE,33,0.0,0.0,63,0.00,,,0.00,VWS V14.01,2013-02-11 12:04:00,
2013-02-11 06:05:00,53.7,41.8,30.02,North,355,4.0,7.0,64,0.00,,,0.00,VWS V14.01,2013-02-11 12:05:00,
2013-02-11 06:09:00,53.6,41.3,30.01,NNE,33,0.0,1.0,63,0.00,,,0.00,VWS V14.01,2013-02-11 12:09:00,
2013-02-11 06:10:00,53.5,41.6,30.01,North,9,4.0,6.0,64,0.00,,,0.00,VWS V14.01,2013-02-11 12:10:00,
2013-02-11 06:14:00,53.4,41.1,30.01,NNE,33,0.0,0.0,63,0.00,,,0.00,VWS V14.01,2013-02-11 12:14:00,
2013-02-11 06:15:00,53.4,41.5,30.01,NW,323,5.0,5.0,64,0.00,,,0.00,VWS V14.01,2013-02-11 12:15:00,
2013-02-11 06:19:00,53.4,40.7,30.01,NNE,33,0.0,1.0,62,0.00,,,0.00,VWS V14.01,2013-02-11 12:19:00,
2013-02-11 06:20:00,53.5,42.0,30.03,NW,317,7.0,8.0,65,0.00,,,0.00,VWS V14.01,2013-02-11 12:20:00,
2013-02-11 06:24:00,53.4,41.1,30.01,NNE,33,0.0,1.0,63,0.00,,,0.00,VWS V14.01,2013-02-11 12:24:00,
2013-02-11 06:25:00,53.5,42.0,30.03,NW,324,3.0,8.0,65,0.00,,,0.00,VWS V14.01,2013-02-11 12:25:00,
2013-02-11 06:29:00,53.8,40.3,30.01,North,357,3.0,4.0,60,0.00,,,0.00,VWS V14.01,2013-02-11 12:29:00,
2013-02-11 06:30:00,53.5,41.6,30.02,North,357,2.0,4.0,64,0.00,,,0.00,VWS V14.01,2013-02-11 12:30:00,
2013-02-11 06:34:00,54.3,40.3,30.01,NNE,16,3.0,4.0,59,0.00,,,0.00,VWS V14.01,2013-02-11 12:34:00,
2013-02-11 06:35:00,53.5,42.4,30.02,NNE,19,1.0,3.0,66,0.00,,,0.00,VWS V14.01,2013-02-11 12:35:00,
2013-02-11 06:39:00,54.3,40.7,30.01,NNE,19,2.0,3.0,60,0.00,,,0.00,VWS V14.01,2013-02-11 12:39:00,
2013-02-11 06:40:00,53.4,41.9,30.02,NNE,19,0.0,1.0,65,0.00,,,0.00,VWS V14.01,2013-02-11 12:40:00,
2013-02-11 06:44:00,54.2,41.1,30.02,North,355,3.0,4.0,61,0.00,,,0.00,VWS V14.01,2013-02-11 12:44:00,
2013-02-11 06:45:00,53.5,42.4,30.02,NNE,21,0.0,0.0,66,0.00,,,0.00,VWS V14.01,2013-02-11 12:45:00,
2013-02-11 06:49:00,54.1,41.8,30.02,NNW,348,4.0,4.0,63,0.00,,,0.00,VWS V14.01,2013-02-11 12:49:00,
2013-02-11 06:50:00,53.7,41.8,30.03,NNE,25,0.0,2.0,64,0.00,,,0.00,VWS V14.01,2013-02-11 12:50:00,
2013-02-11 06:54:00,54.0,41.7,30.02,North,355,6.0,7.0,63,0.00,,,0.00,VWS V14.01,2013-02-11 12:54:00,
2013-02-11 06:55:00,53.8,41.9,30.03,NNE,25,0.0,0.0,64,0.00,,,0.00,VWS V14.01,2013-02-11 12:55:00,
2013-02-11 06:59:00,53.9,41.6,30.02,North,353,6.0,6.0,63,0.00,,,0.00,VWS V14.01,2013-02-11 12:59:00,
2013-02-11 07:00:00,54.0,42.1,30.03,NNE,25,1.0,1.0,64,0.00,,,0.00,VWS V14.01,2013-02-11 13:00:00,
2013-02-11 07:04:00,53.7,41.8,30.02,North,352,4.0,7.0,64,0.00,,,0.00,VWS V14.01,2013-02-11 13:04:00,
2013-02-11 07:05:00,54.3,42.0,30.03,NE,43,1.0,3.0,63,0.00,,,0.00,VWS V14.01,2013-02-11 13:05:00,
2013-02-11 07:09:00,53.5,42.0,30.01,North,8,4.0,6.0,65,0.00,,,0.00,VWS V14.01,2013-02-11 13:09:00,
2013-02-11 07:10:00,54.7,41.5,30.03,NNE,29,2.0,3.0,61,0.00,,,0.00,VWS V14.01,2013-02-11 13:10:00,
2013-02-11 07:14:00,53.4,41.5,30.01,North,352,2.0,5.0,64,0.00,,,0.00,VWS V14.01,2013-02-11 13:14:00,
2013-02-11 07:15:00,55.7,41.2,30.03,NNE,18,4.0,4.0,58,0.00,,,0.00,VWS V14.01,2013-02-11 13:15:00,
2013-02-11 07:19:00,53.6,41.7,30.03,NW,320,6.0,8.0,64,0.00,,,0.00,VWS V14.01,2013-02-11 13:19:00,
2013-02-11 07:20:00,56.4,40.9,30.02,NNE,31,6.0,6.0,56,0.00,,,0.00,VWS V14.01,2013-02-11 13:20:00,
2013-02-11 07:24:00,53.5,42.0,30.03,NW,310,4.0,8.0,65,0.00,,,0.00,VWS V14.01,2013-02-11 13:24:00,
2013-02-11 07:25:00,56.7,40.3,30.03,NE,47,4.0,6.0,54,0.00,,,0.00,VWS V14.01,2013-02-11 13:25:00,
2013-02-11 07:29:00,53.5,41.6,30.02,NNW,344,3.0,4.0,64,0.00,,,0.00,VWS V14.01,2013-02-11 13:29:00,
2013-02-11 07:30:00,56.8,40.3,30.03,NNE,28,1.0,5.0,54,0.00,,,0.00,VWS V14.01,2013-02-11 13:30:00,
2013-02-11 07:34:00,53.6,42.1,30.02,NNE,19,2.0,3.0,65,0.00,,,0.00,VWS V14.01,2013-02-11 13:34:00,
2013-02-11 07:35:00,56.7,39.3,30.04,NNE,33,4.0,5.0,52,0.00,,,0.00,VWS V14.01,2013-02-11 13:35:00,
2013-02-11 07:39:00,53.5,42.0,30.02,NNE,19,0.0,1.0,65,0.00,,,0.00,VWS V14.01,2013-02-11 13:39:00,
2013-02-11 07:40:00,56.7,40.3,30.04,NE,48,3.0,4.0,54,0.00,,,0.00,VWS V14.01,2013-02-11 13:40:00,
2013-02-11 07:44:00,53.5,42.4,30.02,NNE,19,0.0,0.0,66,0.00,,,0.00,VWS V14.01,2013-02-11 13:44:00,
2013-02-11 07:45:00,56.6,39.7,30.04,ENE,59,2.0,3.0,53,0.00,,,0.00,VWS V14.01,2013-02-11 13:45:00,
2013-02-11 07:49:00,53.6,41.7,30.03,NNE,25,0.0,2.0,64,0.00,,,0.00,VWS V14.01,2013-02-11 13:49:00,
2013-02-11 07:50:00,56.6,39.7,30.04,ENE,59,1.0,2.0,53,0.00,,,0.00,VWS V14.01,2013-02-11 13:50:00,
2013-02-11 07:54:00,53.8,41.9,30.03,NNE,25,0.0,0.0,64,0.00,,,0.00,VWS V14.01,2013-02-11 13:54:00,
2013-02-11 07:55:00,56.6,39.7,30.05,East,99,2.0,4.0,53,0.00,,,0.00,VWS V14.01,2013-02-11 13:55:00,
2013-02-11 07:59:00,54.0,42.1,30.03,NNE,25,1.0,1.0,64,0.00,,,0.00,VWS V14.01,2013-02-11 13:59:00,
2013-02-11 08:00:00,56.7,40.3,30.04,ENE,74,2.0,3.0,54,0.00,,,0.00,VWS V14.01,2013-02-11 14:00:00,
2013-02-11 08:04:00,54.2,41.9,30.03,NE,53,1.0,3.0,63,0.00,,,0.00,VWS V14.01,2013-02-11 14:04:00,
2013-02-11 08:05:00,56.8,40.3,30.04,East,101,3.0,3.0,54,0.00,,,0.00,VWS V14.01,2013-02-11 14:05:00,
2013-02-11 08:09:00,54.5,41.8,30.03,NE,47,0.0,3.0,62,0.00,,,0.00,VWS V14.01,2013-02-11 14:09:00,
2013-02-11 08:10:00,56.9,40.9,30.05,SE,126,4.0,4.0,55,0.00,,,0.00,VWS V14.01,2013-02-11 14:10:00,
2013-02-11 08:14:00,55.4,41.3,30.03,NNE,24,2.0,3.0,59,0.00,,,0.00,VWS V14.01,2013-02-11 14:14:00,
2013-02-11 08:15:00,57.0,40.5,30.04,ESE,104,3.0,6.0,54,0.00,,,0.00,VWS V14.01,2013-02-11 14:15:00,
2013-02-11 08:19:00,56.3,40.8,30.03,NNE,12,4.0,6.0,56,0.00,,,0.00,VWS V14.01,2013-02-11 14:19:00,
2013-02-11 08:20:00,57.3,41.8,30.04,ENE,74,3.0,5.0,56,0.00,,,0.00,VWS V14.01,2013-02-11 14:20:00,
2013-02-11 08:24:00,56.7,39.8,30.03,NE,40,3.0,6.0,53,0.00,,,0.00,VWS V14.01,2013-02-11 14:24:00,
2013-02-11 08:25:00,57.6,40.6,30.04,East,87,6.0,7.0,53,0.00,,,0.00,VWS V14.01,2013-02-11 14:25:00,
2013-02-11 08:29:00,56.8,39.4,30.03,NNE,30,3.0,5.0,52,0.00,,,0.00,VWS V14.01,2013-02-11 14:29:00,
2013-02-11 08:30:00,57.8,39.3,30.04,East,80,6.0,10.0,50,0.00,,,0.00,VWS V14.01,2013-02-11 14:30:00,
2013-02-11 08:34:00,56.8,39.9,30.04,NNE,30,4.0,5.0,53,0.00,,,0.00,VWS V14.01,2013-02-11 14:34:00,
2013-02-11 08:35:00,58.2,39.7,30.05,East,101,5.0,7.0,50,0.00,,,0.00,VWS V14.01,2013-02-11 14:35:00,
2013-02-11 08:39:00,56.7,40.3,30.04,ENE,71,2.0,4.0,54,0.00,,,0.00,VWS V14.01,2013-02-11 14:39:00,
2013-02-11 08:40:00,58.7,38.5,30.05,East,95,9.0,10.0,47,0.00,,,0.00,VWS V14.01,2013-02-11 14:40:00,
2013-02-11 08:43:00,56.6,39.7,30.04,NE,52,2.0,3.0,53,0.00,,,0.00,VWS V14.01,2013-02-11 14:43:00,
2013-02-11 08:45:00,58.9,38.7,30.05,ESE,116,7.0,11.0,47,0.00,,,0.00,VWS V14.01,2013-02-11 14:45:00,
2013-02-11 08:48:00,56.7,39.8,30.04,ENE,59,2.0,2.0,53,0.00,,,0.00,VWS V14.01,2013-02-11 14:48:00,
2013-02-11 08:50:00,58.9,38.2,30.05,ESE,102,6.0,11.0,46,0.00,,,0.00,VWS V14.01,2013-02-11 14:50:00,
2013-02-11 08:53:00,56.6,40.2,30.05,East,98,3.0,3.0,54,0.00,,,0.00,VWS V14.01,2013-02-11 14:53:00,
2013-02-11 08:55:00,58.9,37.0,30.05,East,98,6.0,11.0,44,0.00,,,0.00,VWS V14.01,2013-02-11 14:55:00,
2013-02-11 08:58:00,56.6,40.2,30.04,East,90,1.0,3.0,54,0.00,,,0.00,VWS V14.01,2013-02-11 14:58:00,
2013-02-11 09:00:00,58.7,36.9,30.05,East,84,9.0,12.0,44,0.00,,,0.00,VWS V14.01,2013-02-11 15:00:00,
2013-02-11 09:03:00,56.8,40.8,30.04,ENE,75,2.0,2.0,55,0.00,,,0.00,VWS V14.01,2013-02-11 15:03:00,
2013-02-11 09:05:00,58.6,37.9,30.04,East,84,8.0,12.0,46,0.00,,,0.00,VWS V14.01,2013-02-11 15:05:00,
2013-02-11 09:08:00,56.9,40.9,30.04,East,99,2.0,3.0,55,0.00,,,0.00,VWS V14.01,2013-02-11 15:08:00,
2013-02-11 09:10:00,58.5,37.2,30.06,East,95,7.0,11.0,45,0.00,,,0.00,VWS V14.01,2013-02-11 15:10:00,
2013-02-11 09:13:00,57.0,40.5,30.04,ESE,109,4.0,5.0,54,0.00,,,0.00,VWS V14.01,2013-02-11 15:13:00,
2013-02-11 09:15:00,58.4,37.2,30.06,NE,47,4.0,9.0,45,0.00,,,0.00,VWS V14.01,2013-02-11 15:15:00,
2013-02-11 09:18:00,57.2,41.7,30.04,ESE,104,3.0,5.0,56,0.00,,,0.00,VWS V14.01,2013-02-11 15:18:00,
2013-02-11 09:20:00,57.8,40.3,30.06,East,84,4.0,7.0,52,0.01,,,0.01,VWS V14.01,2013-02-11 15:20:00,
2013-02-11 09:23:00,57.6,41.1,30.04,ENE,78,6.0,7.0,54,0.00,,,0.00,VWS V14.01,2013-02-11 15:23:00,
2013-02-11 09:25:00,56.8,41.8,30.06,NE,42,4.0,9.0,57,0.01,,,0.01,VWS V14.01,2013-02-11 15:25:00,
2013-02-11 09:28:00,57.8,40.3,30.04,ENE,61,6.0,7.0,52,0.00,,,0.00,VWS V14.01,2013-02-11 15:28:00,
2013-02-11 09:30:00,56.6,44.6,30.06,NE,54,3.0,5.0,64,0.01,,,0.01,VWS V14.01,2013-02-11 15:30:00,
2013-02-11 09:33:00,58.1,40.6,30.04,East,89,5.0,7.0,52,0.00,,,0.00,VWS V14.01,2013-02-11 15:33:00,
2013-02-11 09:35:00,56.8,45.6,30.07,NE,47,3.0,5.0,66,0.01,,,0.01,VWS V14.01,2013-02-11 15:35:00,
2013-02-11 09:38:00,58.5,39.9,30.05,ENE,71,6.0,10.0,50,0.00,,,0.00,VWS V14.01,2013-02-11 15:38:00,
2013-02-11 09:40:00,56.7,44.7,30.07,NNE,19,4.0,6.0,64,0.01,,,0.01,VWS V14.01,2013-02-11 15:40:00,
2013-02-11 09:43:00,58.9,39.3,30.05,ENE,75,7.0,11.0,48,0.00,,,0.00,VWS V14.01,2013-02-11 15:43:00,
2013-02-11 09:45:00,56.6,43.3,30.07,NE,49,3.0,8.0,61,0.01,,,0.01,VWS V14.01,2013-02-11 15:45:00,
2013-02-11 09:48:00,58.9,38.2,30.05,East,81,9.0,11.0,46,0.00,,,0.00,VWS V14.01,2013-02-11 15:48:00,
2013-02-11 09:50:00,56.6,43.8,30.08,ENE,68,1.0,6.0,62,0.01,,,0.01,VWS V14.01,2013-02-11 15:50:00,
2013-02-11 09:53:00,58.9,37.0,30.05,East,85,8.0,11.0,44,0.00,,,0.00,VWS V14.01,2013-02-11 15:53:00,
2013-02-11 09:55:00,56.7,44.3,30.08,NE,35,2.0,6.0,63,0.01,,,0.01,VWS V14.01,2013-02-11 15:55:00,
2013-02-11 09:58:00,58.8,37.5,30.05,ENE,77,9.0,11.0,45,0.00,,,0.00,VWS V14.01,2013-02-11 15:58:00,
2013-02-11 10:00:00,56.6,44.2,30.08,NNE,30,2.0,6.0,63,0.01,,,0.01,VWS V14.01,2013-02-11 16:00:00,
2013-02-11 10:03:00,58.6,37.3,30.04,ENE,77,9.0,12.0,45,0.00,,,0.00,VWS V14.01,2013-02-11 16:03:00,
2013-02-11 10:05:00,56.5,43.2,30.08,East,80,7.0,8.0,61,0.01,,,0.01,VWS V14.01,2013-02-11 16:05:00,
2013-02-11 10:08:00,58.5,38.4,30.05,ENE,75,6.0,10.0,47,0.00,,,0.00,VWS V14.01,2013-02-11 16:08:00,
2013-02-11 10:10:00,56.5,43.7,30.07,NE,45,7.0,9.0,62,0.01,,,0.01,VWS V14.01,2013-02-11 16:10:00,
2013-02-11 10:13:00,58.5,37.2,30.06,ENE,78,5.0,9.0,45,0.00,,,0.00,VWS V14.01,2013-02-11 16:13:00,
2013-02-11 10:15:00,56.5,44.1,30.06,NE,53,8.0,11.0,63,0.01,,,0.01,VWS V14.01,2013-02-11 16:15:00,
2013-02-11 10:18:00,58.2,39.7,30.06,East,89,7.0,7.0,50,0.00,,,0.00,VWS V14.01,2013-02-11 16:18:00,
2013-02-11 10:20:00,56.5,44.1,30.06,ENE,57,5.0,12.0,63,0.01,,,0.01,VWS V14.01,2013-02-11 16:20:00,
2013-02-11 10:23:00,57.1,40.6,30.06,ENE,57,5.0,9.0,54,0.01,,,0.01,VWS V14.01,2013-02-11 16:23:00,
2013-02-11 10:25:00,56.4,44.0,30.06,ENE,66,6.0,11.0,63,0.00,,,0.01,VWS V14.01,2013-02-11 16:25:00,
2013-02-11 10:28:00,56.6,43.3,30.05,ENE,64,3.0,5.0,61,0.01,,,0.01,VWS V14.01,2013-02-11 16:28:00,
2013-02-11 10:30:00,56.2,44.2,30.06,ENE,59,7.0,12.0,64,0.00,,,0.01,VWS V14.01,2013-02-11 16:30:00,
2013-02-11 10:33:00,56.7,45.1,30.07,NE,40,2.0,5.0,65,0.01,,,0.01,VWS V14.01,2013-02-11 16:33:00,
2013-02-11 10:35:00,56.0,44.0,30.06,NE,56,8.0,10.0,64,0.00,,,0.01,VWS V14.01,2013-02-11 16:35:00,
2013-02-11 10:38:00,56.7,44.3,30.06,NNE,29,3.0,6.0,63,0.01,,,0.01,VWS V14.01,2013-02-11 16:38:00,
2013-02-11 10:40:00,56.0,43.6,30.05,NE,43,10.0,15.0,63,0.00,,,0.01,VWS V14.01,2013-02-11 16:40:00,
2013-02-11 10:43:00,56.6,43.3,30.07,NE,36,6.0,8.0,61,0.01,,,0.01,VWS V14.01,2013-02-11 16:43:00,
2013-02-11 10:45:00,56.1,44.9,30.04,East,92,11.0,14.0,66,0.01,,,0.02,VWS V14.01,2013-02-11 16:45:00,
2013-02-11 10:48:00,56.6,43.8,30.08,NNE,31,2.0,6.0,62,0.01,,,0.01,VWS V14.01,2013-02-11 16:48:00,
2013-02-11 10:50:00,55.4,46.2,30.05,East,92,11.0,13.0,71,0.01,,,0.02,VWS V14.01,2013-02-11 16:50:00,
2013-02-11 10:53:00,56.6,43.8,30.08,NNE,30,3.0,6.0,62,0.01,,,0.01,VWS V14.01,2013-02-11 16:53:00,
2013-02-11 10:55:00,54.8,46.3,30.06,NE,49,5.0,11.0,73,0.01,,,0.02,VWS V14.01,2013-02-11 16:55:00,
2013-02-11 10:58:00,56.6,43.8,30.08,East,87,3.0,6.0,62,0.01,,,0.01,VWS V14.01,2013-02-11 16:58:00,
2013-02-11 11:00:00,54.4,46.3,30.07,NE,47,7.0,10.0,74,0.01,,,0.02,VWS V14.01,2013-02-11 17:00:00,
2013-02-11 11:03:00,56.6,43.8,30.08,ENE,74,6.0,7.0,62,0.01,,,0.01,VWS V14.01,2013-02-11 17:03:00,
2013-02-11 11:05:00,54.2,45.8,30.07,ENE,66,5.0,9.0,73,0.01,,,0.02,VWS V14.01,2013-02-11 17:05:00,
2013-02-11 11:08:00,56.5,44.1,30.08,NNE,25,4.0,8.0,63,0.01,,,0.01,VWS V14.01,2013-02-11 17:08:00,
2013-02-11 11:10:00,54.2,46.1,30.11,West,279,4.0,7.0,74,0.01,,,0.02,VWS V14.01,2013-02-11 17:10:00,
2013-02-11 11:13:00,56.4,43.6,30.06,ENE,68,5.0,9.0,62,0.01,,,0.01,VWS V14.01,2013-02-11 17:13:00,
2013-02-11 11:15:00,54.4,45.6,30.12,NNW,342,6.0,13.0,72,0.01,,,0.02,VWS V14.01,2013-02-11 17:15:00,
2013-02-11 11:18:00,56.5,44.1,30.06,NNE,30,5.0,12.0,63,0.01,,,0.01,VWS V14.01,2013-02-11 17:18:00,
2013-02-11 11:20:00,54.9,45.3,30.07,East,82,10.0,13.0,70,0.01,,,0.02,VWS V14.01,2013-02-11 17:20:00,
2013-02-11 11:23:00,56.5,43.7,30.06,NE,40,9.0,10.0,62,0.00,,,0.01,VWS V14.01,2013-02-11 17:23:00,
2013-02-11 11:25:00,55.7,46.1,30.07,North,349,9.0,13.0,70,0.01,,,0.02,VWS V14.01,2013-02-11 17:25:00,
2013-02-11 11:28:00,56.3,43.9,30.06,ENE,74,5.0,12.0,63,0.00,,,0.01,VWS V14.01,2013-02-11 17:28:00,
2013-02-11 11:30:00,55.7,47.9,30.07,North,5,10.0,12.0,75,0.01,,,0.02,VWS V14.01,2013-02-11 17:30:00,
2013-02-11 11:33:00,56.1,43.7,30.06,ENE,78,6.0,10.0,63,0.00,,,0.01,VWS V14.01,2013-02-11 17:33:00,
2013-02-11 11:35:00,55.5,47.7,30.06,NNE,28,8.0,12.0,75,0.01,,,0.02,VWS V14.01,2013-02-11 17:35:00,
2013-02-11 11:38:00,55.9,43.5,30.05,NE,54,7.0,12.0,63,0.00,,,0.01,VWS V14.01,2013-02-11 17:38:00,
2013-02-11 11:40:00,55.7,47.9,30.05,NNE,29,6.0,13.0,75,0.01,,,0.02,VWS V14.01,2013-02-11 17:40:00,
2013-02-11 11:43:00,56.3,44.7,30.04,East,98,10.0,12.0,65,0.00,,,0.01,VWS V14.01,2013-02-11 17:43:00,
2013-02-11 11:45:00,56.1,48.3,30.05,NE,38,6.0,12.0,75,0.01,,,0.02,VWS V14.01,2013-02-11 17:45:00,
2013-02-11 11:48:00,55.7,46.1,30.04,ENE,78,9.0,13.0,70,0.01,,,0.02,VWS V14.01,2013-02-11 17:48:00,
2013-02-11 11:50:00,56.4,48.2,30.05,ENE,70,12.0,15.0,74,0.00,,,0.02,VWS V14.01,2013-02-11 17:50:00,
2013-02-11 11:53:00,55.0,46.2,30.05,ENE,66,6.0,11.0,72,0.01,,,0.02,VWS V14.01,2013-02-11 17:53:00,
2013-02-11 11:55:00,56.3,47.4,30.05,ENE,77,11.0,16.0,72,0.00,,,0.02,VWS V14.01,2013-02-11 17:55:00,
2013-02-11 11:58:00,54.5,46.0,30.07,ENE,59,6.0,10.0,73,0.01,,,0.02,VWS V14.01,2013-02-11 17:58:00,
2013-02-11 12:00:00,56.2,47.3,30.04,East,82,10.0,13.0,72,0.00,,,0.02,VWS V14.01,2013-02-11 18:00:00,
2013-02-11 12:03:00,54.3,46.2,30.07,ENE,60,4.0,9.0,74,0.01,,,0.02,VWS V14.01,2013-02-11 18:03:00,
2013-02-11 12:05:00,55.9,47.0,30.04,East,88,7.0,13.0,72,0.00,,,0.02,VWS V14.01,2013-02-11 18:05:00,
2013-02-11 12:08:00,54.2,46.1,30.10,North,355,1.0,6.0,74,0.01,,,0.02,VWS V14.01,2013-02-11 18:08:00,
2013-02-11 12:10:00,56.0,47.8,30.02,NE,43,10.0,13.0,74,0.00,,,0.02,VWS V14.01,2013-02-11 18:10:00,
2013-02-11 12:13:00,54.3,45.8,30.12,NW,316,7.0,13.0,73,0.01,,,0.02,VWS V14.01,2013-02-11 18:13:00,
2013-02-11 12:15:00,56.1,47.9,30.02,East,84,9.0,12.0,74,0.00,,,0.02,VWS V14.01,2013-02-11 18:15:00,
2013-02-11 12:18:00,54.6,45.0,30.08,NE,37,8.0,10.0,70,0.01,,,0.02,VWS V14.01,2013-02-11 18:18:00,
2013-02-11 12:20:00,56.1,47.6,30.01,East,84,9.0,12.0,73,0.00,,,0.02,VWS V14.01,2013-02-11 18:20:00,
2013-02-11 12:23:00,55.3,45.3,30.06,NE,40,5.0,13.0,69,0.01,,,0.02,VWS V14.01,2013-02-11 18:23:00,
2013-02-11 12:25:00,56.1,47.6,30.01,East,95,7.0,13.0,73,0.00,,,0.02,VWS V14.01,2013-02-11 18:25:00,
2013-02-11 12:28:00,55.7,47.2,30.07,North,2,8.0,12.0,73,0.01,,,0.02,VWS V14.01,2013-02-11 18:28:00,
2013-02-11 12:30:00,56.1,46.5,30.01,ENE,78,9.0,18.0,70,0.00,,,0.02,VWS V14.01,2013-02-11 18:30:00,
2013-02-11 12:33:00,55.6,47.5,30.06,NNE,25,8.0,12.0,74,0.01,,,0.02,VWS V14.01,2013-02-11 18:33:00,
2013-02-11 12:35:00,56.2,46.2,30.01,East,99,7.0,12.0,69,0.00,,,0.02,VWS V14.01,2013-02-11 18:35:00,
2013-02-11 12:38:00,55.5,47.7,30.06,East,82,6.0,11.0,75,0.01,,,0.02,VWS V14.01,2013-02-11 18:38:00,
2013-02-11 12:40:00,56.3,46.3,30.01,East,82,7.0,11.0,69,0.00,,,0.02,VWS V14.01,2013-02-11 18:40:00,
2013-02-11 12:43:00,56.1,48.7,30.05,NE,50,8.0,12.0,76,0.01,,,0.02,VWS V14.01,2013-02-11 18:43:00,
2013-02-11 12:45:00,56.3,46.3,30.01,East,91,5.0,12.0,69,0.00,,,0.02,VWS V14.01,2013-02-11 18:45:00,
2013-02-11 12:48:00,56.2,47.3,30.05,ENE,66,6.0,15.0,72,0.00,,,0.02,VWS V14.01,2013-02-11 18:48:00,
2013-02-11 12:50:00,56.3,46.3,30.01,ESE,111,7.0,9.0,69,0.00,,,0.02,VWS V14.01,2013-02-11 18:50:00,
2013-02-11 12:53:00,56.4,47.5,30.05,NE,44,11.0,16.0,72,0.00,,,0.02,VWS V14.01,2013-02-11 18:53:00,
2013-02-11 12:55:00,56.3,46.7,30.02,NE,53,4.0,7.0,70,0.00,,,0.02,VWS V14.01,2013-02-11 18:55:00,
2013-02-11 12:58:00,56.3,47.4,30.04,NE,36,9.0,12.0,72,0.00,,,0.02,VWS V14.01,2013-02-11 18:58:00,
2013-02-11 13:00:00,56.2,46.6,30.02,NNE,12,6.0,8.0,70,0.00,,,0.02,VWS V14.01,2013-02-11 19:00:00,
2013-02-11 13:03:00,56.0,46.7,30.04,East,81,8.0,12.0,71,0.00,,,0.02,VWS V14.01,2013-02-11 19:03:00,
2013-02-11 13:05:00,56.1,46.5,30.03,NNE,23,3.0,7.0,70,0.00,,,0.02,VWS V14.01,2013-02-11 19:05:00,
2013-02-11 13:08:00,55.9,47.7,30.03,East,85,9.0,13.0,74,0.00,,,0.02,VWS V14.01,2013-02-11 19:08:00,
2013-02-11 13:10:00,56.0,46.4,30.02,NNE,16,4.0,7.0,70,0.00,,,0.02,VWS V14.01,2013-02-11 19:10:00,
2013-02-11 13:13:00,56.1,48.3,30.02,East,88,8.0,12.0,75,0.00,,,0.02,VWS V14.01,2013-02-11 19:13:00,
2013-02-11 13:15:00,56.1,46.5,30.01,NE,36,6.0,8.0,70,0.00,,,0.02,VWS V14.01,2013-02-11 19:15:00,
2013-02-11 13:18:00,56.1,47.9,30.02,ENE,73,7.0,12.0,74,0.00,,,0.02,VWS V14.01,2013-02-11 19:18:00,
2013-02-11 13:20:00,56.2,46.6,30.01,NE,55,6.0,9.0,70,0.00,,,0.02,VWS V14.01,2013-02-11 19:20:00,
2013-02-11 13:23:00,56.1,47.6,30.01,East,81,10.0,13.0,73,0.00,,,0.02,VWS V14.01,2013-02-11 19:23:00,
2013-02-11 13:25:00,56.5,46.5,30.00,East,82,6.0,9.0,69,0.00,,,0.02,VWS V14.01,2013-02-11 19:25:00,
2013-02-11 13:28:00,56.1,46.8,30.01,East,82,9.0,18.0,71,0.00,,,0.02,VWS V14.01,2013-02-11 19:28:00,
2013-02-11 13:30:00,56.7,46.7,30.00,East,81,3.0,9.0,69,0.00,,,0.02,VWS V14.01,2013-02-11 19:30:00,
2013-02-11 13:33:00,56.1,46.5,30.01,ESE,104,6.0,12.0,70,0.00,,,0.02,VWS V14.01,2013-02-11 19:33:00,
2013-02-11 13:35:00,57.0,47.3,30.00,NE,56,6.0,8.0,70,0.00,,,0.02,VWS V14.01,2013-02-11 19:35:00,
2013-02-11 13:38:00,56.3,46.3,30.01,ESE,105,8.0,11.0,69,0.00,,,0.02,VWS V14.01,2013-02-11 19:38:00,
2013-02-11 13:40:00,57.0,46.6,30.00,East,99,9.0,11.0,68,0.00,,,0.02,VWS V14.01,2013-02-11 19:40:00,
2013-02-11 13:43:00,56.3,45.9,30.01,ESE,104,5.0,12.0,68,0.00,,,0.02,VWS V14.01,2013-02-11 19:43:00,
2013-02-11 13:45:00,57.1,47.0,30.00,ESE,108,6.0,9.0,69,0.00,,,0.02,VWS V14.01,2013-02-11 19:45:00,
2013-02-11 13:48:00,56.4,46.8,30.01,East,84,6.0,8.0,70,0.00,,,0.02,VWS V14.01,2013-02-11 19:48:00,
2013-02-11 13:50:00,57.0,46.2,30.00,NE,52,6.0,10.0,67,0.00,,,0.02,VWS V14.01,2013-02-11 19:50:00,
2013-02-11 13:53:00,56.3,46.7,30.02,East,91,6.0,7.0,70,0.00,,,0.02,VWS V14.01,2013-02-11 19:53:00,
2013-02-11 13:55:00,57.0,46.6,30.00,East,91,8.0,12.0,68,0.00,,,0.02,VWS V14.01,2013-02-11 19:55:00,
2013-02-11 13:58:00,56.2,46.6,30.02,NNE,33,4.0,8.0,70,0.00,,,0.02,VWS V14.01,2013-02-11 19:58:00,
2013-02-11 14:00:00,56.8,46.4,30.00,East,91,6.0,12.0,68,0.00,,,0.02,VWS V14.01,2013-02-11 20:00:00,
2013-02-11 14:03:00,56.1,46.5,30.03,NNE,26,4.0,7.0,70,0.00,,,0.02,VWS V14.01,2013-02-11 20:03:00,
2013-02-11 14:05:00,56.8,47.1,29.99,ENE,73,7.0,8.0,70,0.00,,,0.02,VWS V14.01,2013-02-11 20:05:00,
2013-02-11 14:08:00,56.0,46.4,30.03,North,4,1.0,3.0,70,0.00,,,0.02,VWS V14.01,2013-02-11 20:08:00,
2013-02-11 14:10:00,56.8,47.1,29.99,ESE,106,10.0,12.0,70,0.00,,,0.02,VWS V14.01,2013-02-11 20:10:00,
2013-02-11 14:13:00,56.1,46.5,30.02,NE,52,5.0,8.0,70,0.00,,,0.02,VWS V14.01,2013-02-11 20:13:00,
2013-02-11 14:15:00,56.6,46.9,29.99,East,91,7.0,13.0,70,0.00,,,0.02,VWS V14.01,2013-02-11 20:15:00,
2013-02-11 14:18:00,56.2,46.9,30.01,NE,56,5.0,7.0,71,0.00,,,0.02,VWS V14.01,2013-02-11 20:18:00,
2013-02-11 14:20:00,56.5,47.2,29.99,East,88,8.0,11.0,71,0.00,,,0.02,VWS V14.01,2013-02-11 20:20:00,
2013-02-11 14:23:00,56.3,46.7,30.00,East,80,7.0,7.0,70,0.00,,,0.02,VWS V14.01,2013-02-11 20:23:00,
2013-02-11 14:25:00,56.3,46.7,30.00,NE,52,5.0,13.0,70,0.00,,,0.02,VWS V14.01,2013-02-11 20:25:00,
2013-02-11 14:28:00,56.7,47.4,30.00,East,92,6.0,7.0,71,0.00,,,0.02,VWS V14.01,2013-02-11 20:28:00,
2013-02-11 14:30:00,56.1,46.1,30.00,ESE,106,6.0,9.0,69,0.00,,,0.02,VWS V14.01,2013-02-11 20:30:00,
2013-02-11 14:33:00,56.9,47.2,30.00,East,82,5.0,8.0,70,0.00,,,0.02,VWS V14.01,2013-02-11 20:33:00,
2013-02-11 14:35:00,56.0,46.0,30.00,East,94,7.0,9.0,69,0.00,,,0.02,VWS V14.01,2013-02-11 20:35:00,
2013-02-11 14:38:00,57.0,46.6,29.99,East,90,6.0,10.0,68,0.00,,,0.02,VWS V14.01,2013-02-11 20:38:00,
2013-02-11 14:40:00,55.9,46.3,30.00,ESE,108,7.0,10.0,70,0.00,,,0.02,VWS V14.01,2013-02-11 20:40:00,
2013-02-11 14:43:00,57.0,46.6,30.00,NE,48,6.0,9.0,68,0.00,,,0.02,VWS V14.01,2013-02-11 20:43:00,
2013-02-11 14:45:00,55.7,46.1,30.00,East,97,5.0,11.0,70,0.00,,,0.02,VWS V14.01,2013-02-11 20:45:00,
2013-02-11 14:48:00,57.1,47.0,30.00,East,84,8.0,10.0,69,0.00,,,0.02,VWS V14.01,2013-02-11 20:48:00,
2013-02-11 14:50:00,55.5,46.3,30.00,East,84,5.0,10.0,71,0.00,,,0.02,VWS V14.01,2013-02-11 20:50:00,
2013-02-11 14:53:00,57.0,46.2,30.00,ENE,75,9.0,9.0,67,0.00,,,0.02,VWS V14.01,2013-02-11 20:53:00,
2013-02-11 14:55:00,55.5,45.9,30.00,ENE,63,8.0,11.0,70,0.00,,,0.02,VWS V14.01,2013-02-11 20:55:00,
2013-02-11 14:58:00,56.9,46.1,30.00,ESE,111,7.0,12.0,67,0.00,,,0.02,VWS V14.01,2013-02-11 20:58:00,
2013-02-11 15:00:00,55.5,46.3,30.00,ENE,77,7.0,9.0,71,0.00,,,0.02,VWS V14.01,2013-02-11 21:00:00,
2013-02-11 15:03:00,56.8,46.8,29.99,ENE,71,8.0,8.0,69,0.00,,,0.02,VWS V14.01,2013-02-11 21:03:00,
2013-02-11 15:05:00,55.5,46.3,29.99,NE,50,7.0,11.0,71,0.00,,,0.02,VWS V14.01,2013-02-11 21:05:00,
2013-02-11 15:08:00,56.8,46.8,29.99,East,82,8.0,11.0,69,0.00,,,0.02,VWS V14.01,2013-02-11 21:08:00,
2013-02-11 15:10:00,55.6,46.0,30.00,ENE,66,4.0,8.0,70,0.00,,,0.02,VWS V14.01,2013-02-11 21:10:00,
2013-02-11 15:13:00,56.7,47.0,29.99,ENE,61,8.0,13.0,70,0.00,,,0.02,VWS V14.01,2013-02-11 21:13:00,
2013-02-11 15:15:00,55.5,45.9,30.00,NE,49,8.0,13.0,70,0.00,,,0.02,VWS V14.01,2013-02-11 21:15:00,
2013-02-11 15:18:00,56.5,46.8,29.99,East,81,5.0,8.0,70,0.00,,,0.02,VWS V14.01,2013-02-11 21:18:00,
2013-02-11 15:20:00,55.4,44.6,30.00,ENE,60,10.0,13.0,67,0.00,,,0.02,VWS V14.01,2013-02-11 21:20:00,
2013-02-11 15:23:00,56.4,46.0,30.00,ENE,68,9.0,13.0,68,0.00,,,0.02,VWS V14.01,2013-02-11 21:23:00,
2013-02-11 15:25:00,55.2,44.1,29.99,East,97,7.0,14.0,66,0.00,,,0.02,VWS V14.01,2013-02-11 21:25:00,
2013-02-11 15:28:00,56.2,46.2,30.00,ENE,73,6.0,9.0,69,0.00,,,0.02,VWS V14.01,2013-02-11 21:28:00,
2013-02-11 15:30:00,55.1,44.3,29.99,ENE,78,8.0,12.0,67,0.00,,,0.02,VWS V14.01,2013-02-11 21:30:00,
2013-02-11 15:32:00,56.1,46.1,30.00,East,91,7.0,8.0,69,0.00,,,0.02,VWS V14.01,2013-02-11 21:32:00,
2013-02-11 15:35:00,55.1,44.7,29.99,ENE,68,3.0,9.0,68,0.00,,,0.02,VWS V14.01,2013-02-11 21:35:00,
2013-02-11 15:37:00,56.0,46.4,30.00,East,91,5.0,10.0,70,0.00,,,0.02,VWS V14.01,2013-02-11 21:37:00,
2013-02-11 15:40:00,54.7,46.6,30.00,North,352,5.0,7.0,74,0.00,,,0.02,VWS V14.01,2013-02-11 21:40:00,
2013-02-11 15:42:00,55.8,46.2,30.00,East,91,7.0,11.0,70,0.00,,,0.02,VWS V14.01,2013-02-11 21:42:00,
2013-02-11 15:45:00,53.9,46.9,30.00,NNE,26,9.0,9.0,77,0.00,,,0.02,VWS V14.01,2013-02-11 21:45:00,
2013-02-11 15:47:00,55.6,46.0,30.00,East,92,10.0,10.0,70,0.00,,,0.02,VWS V14.01,2013-02-11 21:47:00,
2013-02-11 15:50:00,53.5,46.5,30.00,North,3,6.0,11.0,77,0.00,,,0.02,VWS V14.01,2013-02-11 21:50:00,
2013-02-11 15:52:00,55.5,46.3,30.00,NE,52,6.0,9.0,71,0.00,,,0.02,VWS V14.01,2013-02-11 21:52:00,
2013-02-11 15:55:00,53.3,47.0,30.00,NNE,14,9.0,11.0,79,0.00,,,0.02,VWS V14.01,2013-02-11 21:55:00,
2013-02-11 15:57:00,55.5,46.3,30.00,East,87,6.0,9.0,71,0.00,,,0.02,VWS V14.01,2013-02-11 21:57:00,
2013-02-11 16:00:00,53.2,46.9,30.00,NE,35,4.0,11.0,79,0.00,,,0.02,VWS V14.01,2013-02-11 22:00:00,
2013-02-11 16:02:00,55.5,46.3,29.99,ENE,78,9.0,11.0,71,0.00,,,0.02,VWS V14.01,2013-02-11 22:02:00,
2013-02-11 16:05:00,53.0,47.0,30.00,North,4,2.0,8.0,80,0.00,,,0.02,VWS V14.01,2013-02-11 22:05:00,
2013-02-11 16:07:00,55.6,46.0,29.99,East,85,6.0,8.0,70,0.00,,,0.02,VWS V14.01,2013-02-11 22:07:00,
2013-02-11 16:10:00,53.1,47.1,30.00,NE,40,4.0,7.0,80,0.00,,,0.02,VWS V14.01,2013-02-11 22:10:00,
2013-02-11 16:12:00,55.5,45.5,30.00,NE,37,10.0,13.0,69,0.00,,,0.02,VWS V14.01,2013-02-11 22:12:00,
2013-02-11 16:15:00,53.2,46.5,30.00,NE,46,7.0,10.0,78,0.00,,,0.02,VWS V14.01,2013-02-11 22:15:00,
2013-02-11 16:17:00,55.5,45.1,30.00,NE,47,12.0,13.0,68,0.00,,,0.02,VWS V14.01,2013-02-11 22:17:00,
2013-02-11 16:20:00,53.2,46.9,30.00,NE,34,3.0,7.0,79,0.00,,,0.02,VWS V14.01,2013-02-11 22:20:00,
2013-02-11 16:22:00,55.3,44.5,30.00,ENE,70,9.0,12.0,67,0.00,,,0.02,VWS V14.01,2013-02-11 22:22:00,
2013-02-11 16:25:00,53.2,46.5,30.01,NNE,26,4.0,8.0,78,0.00,,,0.02,VWS V14.01,2013-02-11 22:25:00,
2013-02-11 16:27:00,55.1,44.3,29.99,ESE,104,6.0,12.0,67,0.00,,,0.02,VWS V14.01,2013-02-11 22:27:00,
2013-02-11 16:30:00,53.2,46.9,30.00,NE,56,4.0,7.0,79,0.00,,,0.02,VWS V14.01,2013-02-11 22:30:00,
2013-02-11 16:32:00,55.1,44.7,30.00,East,81,6.0,9.0,68,0.00,,,0.02,VWS V14.01,2013-02-11 22:32:00,
2013-02-11 16:35:00,53.3,47.0,30.00,NE,45,3.0,8.0,79,0.00,,,0.02,VWS V14.01,2013-02-11 22:35:00,
2013-02-11 16:37:00,55.1,45.9,30.00,NNE,14,6.0,7.0,71,0.00,,,0.02,VWS V14.01,2013-02-11 22:37:00,
2013-02-11 16:40:00,53.3,46.6,30.01,ENE,71,4.0,7.0,78,0.00,,,0.02,VWS V14.01,2013-02-11 22:40:00,
2013-02-11 16:42:00,54.2,46.8,30.00,NNE,20,4.0,9.0,76,0.00,,,0.02,VWS V14.01,2013-02-11 22:42:00,
2013-02-11 16:45:00,53.2,46.5,30.01,NE,36,4.0,8.0,78,0.00,,,0.02,VWS V14.01,2013-02-11 22:45:00,
2013-02-11 16:47:00,53.6,46.6,30.00,North,7,4.0,11.0,77,0.00,,,0.02,VWS V14.01,2013-02-11 22:47:00,
2013-02-11 16:50:00,53.2,46.5,30.01,ENE,57,5.0,7.0,78,0.00,,,0.02,VWS V14.01,2013-02-11 22:50:00,
2013-02-11 16:52:00,53.4,46.7,30.00,NNE,18,7.0,11.0,78,0.00,,,0.02,VWS V14.01,2013-02-11 22:52:00,
2013-02-11 16:55:00,53.2,46.5,30.01,East,82,6.0,8.0,78,0.00,,,0.02,VWS V14.01,2013-02-11 22:55:00,
2013-02-11 16:57:00,53.2,46.9,30.00,North,9,9.0,11.0,79,0.00,,,0.02,VWS V14.01,2013-02-11 22:57:00,
2013-02-11 17:00:00,53.2,46.5,30.01,East,92,5.0,9.0,78,0.00,,,0.02,VWS V14.01,2013-02-11 23:00:00,
2013-02-11 17:02:00,53.1,47.1,30.00,North,358,4.0,7.0,80,0.00,,,0.02,VWS V14.01,2013-02-11 23:02:00,
2013-02-11 17:05:00,53.1,46.4,30.00,East,80,6.0,9.0,78,0.00,,,0.02,VWS V14.01,2013-02-11 23:05:00,
2013-02-11 17:07:00,53.0,47.0,30.00,NNE,22,3.0,4.0,80,0.00,,,0.02,VWS V14.01,2013-02-11 23:07:00,
2013-02-11 17:10:00,53.1,46.4,30.00,ENE,71,6.0,9.0,78,0.00,,,0.02,VWS V14.01,2013-02-11 23:10:00,
2013-02-11 17:12:00,53.2,46.5,30.00,NNE,16,8.0,10.0,78,0.00,,,0.02,VWS V14.01,2013-02-11 23:12:00,
2013-02-11 17:15:00,53.1,46.4,30.01,NNE,33,6.0,9.0,78,0.00,,,0.02,VWS V14.01,2013-02-11 23:15:00,
2013-02-11 17:17:00,53.2,46.5,30.00,ENE,63,6.0,7.0,78,0.00,,,0.02,VWS V14.01,2013-02-11 23:17:00,
2013-02-11 17:20:00,53.1,46.8,30.01,NE,50,5.0,9.0,79,0.00,,,0.02,VWS V14.01,2013-02-11 23:20:00,
2013-02-11 17:22:00,53.2,46.5,30.00,NNE,30,4.0,7.0,78,0.00,,,0.02,VWS V14.01,2013-02-11 23:22:00,
2013-02-11 17:25:00,53.1,46.8,30.00,NE,52,4.0,6.0,79,0.00,,,0.02,VWS V14.01,2013-02-11 23:25:00,
2013-02-11 17:27:00,53.2,46.5,30.00,NE,46,6.0,7.0,78,0.00,,,0.02,VWS V14.01,2013-02-11 23:27:00,
2013-02-11 17:30:00,53.1,46.4,30.01,ENE,60,6.0,10.0,78,0.00,,,0.02,VWS V14.01,2013-02-11 23:30:00,
2013-02-11 17:32:00,53.2,46.5,30.00,NE,43,4.0,7.0,78,0.00,,,0.02,VWS V14.01,2013-02-11 23:32:00,
2013-02-11 17:35:00,53.1,46.8,30.01,NE,49,3.0,8.0,79,0.00,,,0.02,VWS V14.01,2013-02-11 23:35:00,
2013-02-11 17:37:00,53.3,46.6,30.00,East,81,4.0,6.0,78,0.00,,,0.02,VWS V14.01,2013-02-11 23:37:00,
2013-02-11 17:40:00,53.0,46.7,30.01,NE,45,4.0,6.0,79,0.00,,,0.02,VWS V14.01,2013-02-11 23:40:00,
2013-02-11 17:42:00,53.3,46.6,30.01,NNE,25,5.0,7.0,78,0.00,,,0.02,VWS V14.01,2013-02-11 23:42:00,
2013-02-11 17:45:00,52.9,46.6,30.01,NE,42,7.0,8.0,79,0.00,,,0.02,VWS V14.01,2013-02-11 23:45:00,
2013-02-11 17:47:00,53.2,46.5,30.01,NE,45,5.0,7.0,78,0.00,,,0.02,VWS V14.01,2013-02-11 23:47:00,
2013-02-11 17:50:00,52.7,46.7,30.01,NNE,30,7.0,8.0,80,0.00,,,0.02,VWS V14.01,2013-02-11 23:50:00,
2013-02-11 17:52:00,53.2,46.5,30.01,East,84,5.0,7.0,78,0.00,,,0.02,VWS V14.01,2013-02-11 23:52:00,
2013-02-11 17:55:00,52.6,46.6,30.01,ENE,63,4.0,8.0,80,0.00,,,0.02,VWS V14.01,2013-02-11 23:55:00,
2013-02-11 17:57:00,53.2,46.5,30.01,East,84,6.0,7.0,78,0.00,,,0.02,VWS V14.01,2013-02-11 23:57:00,
2013-02-11 18:00:00,52.5,46.8,30.01,NE,53,4.0,8.0,81,0.00,,,0.02,VWS V14.01,2013-02-12 00:00:00,
2013-02-11 18:02:00,53.2,46.5,30.00,ENE,77,6.0,8.0,78,0.00,,,0.02,VWS V14.01,2013-02-12 00:02:00,
2013-02-11 18:05:00,52.5,46.8,30.01,NNE,31,6.0,9.0,81,0.00,,,0.02,VWS V14.01,2013-02-12 00:05:00,
2013-02-11 18:07:00,53.1,46.4,30.00,ENE,64,6.0,8.0,78,0.00,,,0.02,VWS V14.01,2013-02-12 00:07:00,
2013-02-11 18:10:00,52.4,46.8,30.01,NNE,29,7.0,8.0,81,0.00,,,0.02,VWS V14.01,2013-02-12 00:10:00,
2013-02-11 18:12:00,53.1,46.4,30.00,ENE,78,5.0,7.0,78,0.00,,,0.02,VWS V14.01,2013-02-12 00:12:00,
2013-02-11 18:15:00,52.3,47.0,30.01,NE,40,8.0,9.0,82,0.00,,,0.02,VWS V14.01,2013-02-12 00:15:00,
2013-02-11 18:17:00,53.1,46.4,30.01,NE,53,4.0,9.0,78,0.00,,,0.02,VWS V14.01,2013-02-12 00:17:00,
2013-02-11 18:20:00,52.1,46.8,30.01,NE,44,6.0,10.0,82,0.00,,,0.02,VWS V14.01,2013-02-12 00:20:00,
2013-02-11 18:22:00,53.1,46.8,30.00,NE,45,4.0,6.0,79,0.00,,,0.02,VWS V14.01,2013-02-12 00:22:00,
2013-02-11 18:25:00,52.1,47.1,30.01,NNE,23,5.0,7.0,83,0.00,,,0.02,VWS V14.01,2013-02-12 00:25:00,
2013-02-11 18:27:00,53.1,46.8,30.01,NE,42,5.0,6.0,79,0.00,,,0.02,VWS V14.01,2013-02-12 00:27:00,
2013-02-11 18:30:00,52.0,47.0,30.01,NE,43,9.0,10.0,83,0.00,,,0.02,VWS V14.01,2013-02-12 00:30:00,
2013-02-11 18:32:00,53.1,46.8,30.01,East,82,5.0,8.0,79,0.00,,,0.02,VWS V14.01,2013-02-12 00:32:00,
2013-02-11 18:35:00,52.0,47.0,30.02,ENE,59,6.0,9.0,83,0.00,,,0.02,VWS V14.01,2013-02-12 00:35:00,
2013-02-11 18:37:00,53.1,46.8,30.01,NE,55,3.0,4.0,79,0.00,,,0.02,VWS V14.01,2013-02-12 00:37:00,
2013-02-11 18:40:00,51.9,46.9,30.01,East,81,6.0,8.0,83,0.00,,,0.02,VWS V14.01,2013-02-12 00:40:00,
2013-02-11 18:42:00,52.9,46.6,30.01,NE,38,6.0,7.0,79,0.00,,,0.02,VWS V14.01,2013-02-12 00:42:00,
2013-02-11 18:45:00,51.8,46.8,30.01,NE,43,7.0,9.0,83,0.00,,,0.02,VWS V14.01,2013-02-12 00:45:00,
2013-02-11 18:47:00,52.8,46.8,30.01,NNE,33,6.0,7.0,80,0.00,,,0.02,VWS V14.01,2013-02-12 00:47:00,
2013-02-11 18:50:00,51.7,47.0,30.01,NE,46,4.0,8.0,84,0.00,,,0.02,VWS V14.01,2013-02-12 00:50:00,
2013-02-11 18:52:00,52.7,46.7,30.01,NE,43,4.0,8.0,80,0.00,,,0.02,VWS V14.01,2013-02-12 00:52:00,
2013-02-11 18:55:00,51.7,47.0,30.01,ENE,70,5.0,8.0,84,0.00,,,0.02,VWS V14.01,2013-02-12 00:55:00,
2013-02-11 18:57:00,52.6,46.6,30.01,NNE,26,6.0,8.0,80,0.00,,,0.02,VWS V14.01,2013-02-12 00:57:00,
2013-02-11 19:00:00,51.6,46.9,30.01,ENE,71,4.0,9.0,84,0.00,,,0.02,VWS V14.01,2013-02-12 01:00:00,
2013-02-11 19:02:00,52.5,46.8,30.01,NE,40,5.0,5.0,81,0.00,,,0.02,VWS V14.01,2013-02-12 01:02:00,
2013-02-11 19:05:00,51.6,46.9,30.01,ENE,61,6.0,8.0,84,0.00,,,0.02,VWS V14.01,2013-02-12 01:05:00,
2013-02-11 19:07:00,52.4,46.8,30.01,NE,40,5.0,8.0,81,0.00,,,0.02,VWS V14.01,2013-02-12 01:07:00,
2013-02-11 19:10:00,51.6,46.6,30.01,ENE,78,8.0,8.0,83,0.00,,,0.02,VWS V14.01,2013-02-12 01:10:00,
2013-02-11 19:12:00,52.3,46.7,30.01,NE,40,6.0,9.0,81,0.00,,,0.02,VWS V14.01,2013-02-12 01:12:00,
2013-02-11 19:15:00,51.6,46.6,30.01,ENE,72,5.0,9.0,83,0.00,,,0.02,VWS V14.01,2013-02-12 01:15:00,
2013-02-11 19:17:00,52.2,46.9,30.01,NNE,20,7.0,9.0,82,0.00,,,0.02,VWS V14.01,2013-02-12 01:17:00,
2013-02-11 19:20:00,51.6,46.9,30.01,NE,52,3.0,9.0,84,0.00,,,0.02,VWS V14.01,2013-02-12 01:20:00,
2013-02-11 19:22:00,52.1,46.8,30.01,NE,37,5.0,6.0,82,0.00,,,0.02,VWS V14.01,2013-02-12 01:22:00,
2013-02-11 19:25:00,51.6,46.9,30.00,East,84,6.0,11.0,84,0.00,,,0.02,VWS V14.01,2013-02-12 01:25:00,
2013-02-11 19:27:00,52.1,47.1,30.01,NE,46,6.0,8.0,83,0.00,,,0.02,VWS V14.01,2013-02-12 01:27:00,
2013-02-11 19:30:00,51.5,46.8,30.01,ENE,61,3.0,9.0,84,0.00,,,0.02,VWS V14.01,2013-02-12 01:30:00,
2013-02-11 19:32:00,52.0,47.0,30.01,ENE,77,4.0,9.0,83,0.00,,,0.02,VWS V14.01,2013-02-12 01:32:00,
2013-02-11 19:35:00,51.5,46.8,30.01,ENE,60,4.0,9.0,84,0.00,,,0.02,VWS V14.01,2013-02-12 01:35:00,
2013-02-11 19:37:00,51.9,46.9,30.01,NE,46,3.0,7.0,83,0.00,,,0.02,VWS V14.01,2013-02-12 01:37:00,
2013-02-11 19:40:00,51.5,46.8,30.00,ENE,59,4.0,5.0,84,0.00,,,0.02,VWS V14.01,2013-02-12 01:40:00,
2013-02-11 19:42:00,51.8,46.8,30.01,NE,40,7.0,9.0,83,0.00,,,0.02,VWS V14.01,2013-02-12 01:42:00,
2013-02-11 19:45:00,51.5,46.8,30.00,NE,37,4.0,6.0,84,0.00,,,0.02,VWS V14.01,2013-02-12 01:45:00,
2013-02-11 19:47:00,51.8,46.8,30.01,ENE,73,7.0,8.0,83,0.00,,,0.02,VWS V14.01,2013-02-12 01:47:00,
2013-02-11 19:50:00,51.5,46.8,30.00,East,84,4.0,7.0,84,0.00,,,0.02,VWS V14.01,2013-02-12 01:50:00,
2013-02-11 19:52:00,51.7,47.0,30.01,ENE,59,4.0,8.0,84,0.00,,,0.02,VWS V14.01,2013-02-12 01:52:00,
2013-02-11 19:55:00,51.5,46.5,30.00,NE,36,6.0,7.0,83,0.00,,,0.02,VWS V14.01,2013-02-12 01:55:00,
2013-02-11 19:57:00,51.7,47.0,30.01,East,82,4.0,7.0,84,0.00,,,0.02,VWS V14.01,2013-02-12 01:57:00,
2013-02-11 20:00:00,51.5,46.5,30.00,ENE,73,5.0,7.0,83,0.00,,,0.02,VWS V14.01,2013-02-12 02:00:00,
2013-02-11 20:02:00,51.7,47.0,30.01,ENE,70,3.0,6.0,84,0.00,,,0.02,VWS V14.01,2013-02-12 02:02:00,
2013-02-11 20:05:00,51.6,46.6,30.00,East,79,3.0,8.0,83,0.00,,,0.02,VWS V14.01,2013-02-12 02:05:00,
2013-02-11 20:07:00,51.6,46.9,30.01,ENE,63,6.0,8.0,84,0.00,,,0.02,VWS V14.01,2013-02-12 02:07:00,
2013-02-11 20:10:00,51.6,46.6,30.00,East,96,5.0,7.0,83,0.00,,,0.02,VWS V14.01,2013-02-12 02:10:00,
2013-02-11 20:12:00,51.6,46.9,30.01,ENE,63,6.0,9.0,84,0.00,,,0.02,VWS V14.01,2013-02-12 02:12:00,
2013-02-11 20:15:00,51.6,46.3,30.00,East,82,5.0,10.0,82,0.00,,,0.02,VWS V14.01,2013-02-12 02:15:00,
2013-02-11 20:17:00,51.6,46.9,30.01,East,80,3.0,5.0,84,0.00,,,0.02,VWS V14.01,2013-02-12 02:17:00,
2013-02-11 20:20:00,51.7,46.1,30.00,NE,56,5.0,8.0,81,0.00,,,0.02,VWS V14.01,2013-02-12 02:20:00,
2013-02-11 20:22:00,51.6,46.9,30.01,East,88,8.0,11.0,84,0.00,,,0.02,VWS V14.01,2013-02-12 02:22:00,
2013-02-11 20:25:00,51.7,46.1,30.00,NE,47,4.0,8.0,81,0.00,,,0.02,VWS V14.01,2013-02-12 02:25:00,
2013-02-11 20:27:00,51.5,46.8,30.00,East,82,8.0,8.0,84,0.00,,,0.02,VWS V14.01,2013-02-12 02:27:00,
2013-02-11 20:30:00,51.7,46.1,30.00,East,80,7.0,9.0,81,0.00,,,0.02,VWS V14.01,2013-02-12 02:30:00,
2013-02-11 20:32:00,51.5,46.8,30.01,NE,53,4.0,9.0,84,0.00,,,0.02,VWS V14.01,2013-02-12 02:32:00,
2013-02-11 20:35:00,51.7,46.1,30.00,NE,53,5.0,8.0,81,0.00,,,0.02,VWS V14.01,2013-02-12 02:35:00,
2013-02-11 20:37:00,51.5,46.8,30.01,ENE,73,3.0,5.0,84,0.00,,,0.02,VWS V14.01,2013-02-12 02:37:00,
2013-02-11 20:40:00,51.7,46.1,29.99,ENE,71,3.0,9.0,81,0.00,,,0.02,VWS V14.01,2013-02-12 02:40:00,
2013-02-11 20:42:00,51.5,46.8,30.00,NE,47,3.0,6.0,84,0.00,,,0.02,VWS V14.01,2013-02-12 02:42:00,
2013-02-11 20:45:00,51.6,45.6,30.00,East,85,7.0,9.0,80,0.00,,,0.02,VWS V14.01,2013-02-12 02:45:00,
2013-02-11 20:47:00,51.5,46.8,30.00,ENE,67,4.0,7.0,84,0.00,,,0.02,VWS V14.01,2013-02-12 02:47:00,
2013-02-11 20:50:00,51.7,45.7,30.00,East,94,6.0,8.0,80,0.00,,,0.02,VWS V14.01,2013-02-12 02:50:00,
2013-02-11 20:52:00,51.5,46.8,30.00,ENE,60,5.0,6.0,84,0.00,,,0.02,VWS V14.01,2013-02-12 02:52:00,
2013-02-11 20:55:00,51.7,45.4,29.99,East,94,5.0,10.0,79,0.00,,,0.02,VWS V14.01,2013-02-12 02:55:00,
2013-02-11 20:57:00,51.5,46.5,30.00,NE,49,7.0,7.0,83,0.00,,,0.02,VWS V14.01,2013-02-12 02:57:00,
2013-02-11 21:00:00,51.7,45.1,29.99,East,94,9.0,11.0,78,0.00,,,0.02,VWS V14.01,2013-02-12 03:00:00,
2013-02-11 21:02:00,51.5,46.5,30.00,East,82,6.0,7.0,83,0.00,,,0.02,VWS V14.01,2013-02-12 03:02:00,
2013-02-11 21:05:00,51.7,45.1,29.99,East,88,11.0,13.0,78,0.00,,,0.02,VWS V14.01,2013-02-12 03:05:00,
2013-02-11 21:07:00,51.6,46.6,30.00,NE,36,3.0,7.0,83,0.00,,,0.02,VWS V14.01,2013-02-12 03:07:00,
2013-02-11 21:10:00,51.6,44.6,29.99,East,88,5.0,13.0,77,0.00,,,0.02,VWS V14.01,2013-02-12 03:10:00,
2013-02-11 21:12:00,51.6,46.3,30.00,ENE,76,8.0,10.0,82,0.00,,,0.02,VWS V14.01,2013-02-12 03:12:00,
2013-02-11 21:15:00,51.6,44.6,29.99,East,94,5.0,12.0,77,0.00,,,0.02,VWS V14.01,2013-02-12 03:15:00,
2013-02-11 21:17:00,51.7,46.4,30.00,East,85,6.0,6.0,82,0.00,,,0.02,VWS V14.01,2013-02-12 03:17:00,
2013-02-11 21:20:00,51.6,45.0,29.99,ENE,63,8.0,8.0,78,0.00,,,0.02,VWS V14.01,2013-02-12 03:20:00,
2013-02-11 21:22:00,51.7,46.1,30.00,East,87,6.0,8.0,81,0.00,,,0.02,VWS V14.01,2013-02-12 03:22:00,
2013-02-11 21:25:00,51.6,45.0,29.99,East,83,7.0,9.0,78,0.00,,,0.02,VWS V14.01,2013-02-12 03:25:00,
2013-02-11 21:27:00,51.7,46.1,30.00,ENE,66,6.0,9.0,81,0.00,,,0.02,VWS V14.01,2013-02-12 03:27:00,
2013-02-11 21:30:00,51.5,44.9,29.99,NE,56,5.0,9.0,78,0.00,,,0.02,VWS V14.01,2013-02-12 03:30:00,
2013-02-11 21:32:00,51.7,46.1,30.00,ENE,73,4.0,8.0,81,0.00,,,0.02,VWS V14.01,2013-02-12 03:32:00,
2013-02-11 21:35:00,51.5,44.9,29.99,NE,42,7.0,13.0,78,0.00,,,0.02,VWS V14.01,2013-02-12 03:35:00,
2013-02-11 21:37:00,51.6,46.0,30.00,ESE,102,6.0,9.0,81,0.00,,,0.02,VWS V14.01,2013-02-12 03:37:00,
2013-02-11 21:40:00,51.4,44.8,29.99,East,97,5.0,10.0,78,0.00,,,0.02,VWS V14.01,2013-02-12 03:40:00,
2013-02-11 21:42:00,51.6,45.6,29.99,ENE,66,5.0,9.0,80,0.00,,,0.02,VWS V14.01,2013-02-12 03:42:00,
2013-02-11 21:45:00,51.4,45.1,29.99,East,88,7.0,10.0,79,0.00,,,0.02,VWS V14.01,2013-02-12 03:45:00,
2013-02-11 21:47:00,51.6,45.6,30.00,East,90,7.0,8.0,80,0.00,,,0.02,VWS V14.01,2013-02-12 03:47:00,
2013-02-11 21:50:00,51.3,45.0,29.99,East,88,7.0,10.0,79,0.00,,,0.02,VWS V14.01,2013-02-12 03:50:00,
2013-02-11 21:52:00,51.7,45.7,29.99,East,95,5.0,8.0,80,0.00,,,0.02,VWS V14.01,2013-02-12 03:52:00,
2013-02-11 21:55:00,51.3,45.0,29.99,East,90,8.0,12.0,79,0.00,,,0.02,VWS V14.01,2013-02-12 03:55:00,
2013-02-11 21:57:00,51.7,45.4,30.00,East,94,6.0,8.0,79,0.00,,,0.02,VWS V14.01,2013-02-12 03:57:00,
2013-02-11 22:00:00,51.3,45.0,29.99,ENE,74,6.0,11.0,79,0.00,,,0.02,VWS V14.01,2013-02-12 04:00:00,
2013-02-11 22:02:00,51.7,44.7,29.99,East,84,10.0,13.0,77,0.00,,,0.02,VWS V14.01,2013-02-12 04:02:00,
2013-02-11 22:05:00,51.2,45.2,29.99,ESE,104,7.0,11.0,80,0.00,,,0.02,VWS V14.01,2013-02-12 04:05:00,
2013-02-11 22:07:00,51.7,44.7,29.99,East,90,5.0,13.0,77,0.00,,,0.02,VWS V14.01,2013-02-12 04:07:00,
2013-02-11 22:10:00,51.2,45.2,29.99,East,85,8.0,9.0,80,0.00,,,0.02,VWS V14.01,2013-02-12 04:10:00,
2013-02-11 22:12:00,51.6,44.6,29.99,ESE,109,12.0,12.0,77,0.00,,,0.02,VWS V14.01,2013-02-12 04:12:00,
2013-02-11 22:15:00,51.1,45.2,29.99,East,91,6.0,10.0,80,0.00,,,0.02,VWS V14.01,2013-02-12 04:15:00,
2013-02-11 22:17:00,51.6,44.6,29.99,ENE,75,4.0,8.0,77,0.00,,,0.02,VWS V14.01,2013-02-12 04:17:00,
2013-02-11 22:20:00,51.0,45.4,29.99,East,91,4.0,11.0,81,0.00,,,0.02,VWS V14.01,2013-02-12 04:20:00,
2013-02-11 22:22:00,51.6,45.0,29.99,East,81,5.0,9.0,78,0.00,,,0.02,VWS V14.01,2013-02-12 04:22:00,
2013-02-11 22:25:00,51.0,45.4,29.99,ESE,112,11.0,11.0,81,0.00,,,0.02,VWS V14.01,2013-02-12 04:25:00,
2013-02-11 22:27:00,51.5,44.9,29.99,East,82,5.0,8.0,78,0.00,,,0.02,VWS V14.01,2013-02-12 04:27:00,
2013-02-11 22:30:00,51.0,45.7,29.99,ESE,106,3.0,10.0,82,0.00,,,0.02,VWS V14.01,2013-02-12 04:30:00,
2013-02-11 22:32:00,51.5,44.9,29.99,ENE,70,7.0,9.0,78,0.00,,,0.02,VWS V14.01,2013-02-12 04:32:00,
2013-02-11 22:35:00,51.0,45.7,29.99,East,81,6.0,11.0,82,0.00,,,0.02,VWS V14.01,2013-02-12 04:35:00,
2013-02-11 22:37:00,51.5,44.9,29.99,East,90,4.0,10.0,78,0.00,,,0.02,VWS V14.01,2013-02-12 04:37:00,
2013-02-11 22:40:00,50.9,45.6,29.99,ESE,112,6.0,9.0,82,0.00,,,0.02,VWS V14.01,2013-02-12 04:40:00,
2013-02-11 22:42:00,51.4,44.8,29.99,East,88,6.0,10.0,78,0.00,,,0.02,VWS V14.01,2013-02-12 04:42:00,
2013-02-11 22:45:00,50.9,45.6,29.99,ESE,102,7.0,9.0,82,0.00,,,0.02,VWS V14.01,2013-02-12 04:45:00,
2013-02-11 22:47:00,51.4,45.1,29.99,ESE,106,8.0,9.0,79,0.00,,,0.02,VWS V14.01,2013-02-12 04:47:00,
2013-02-11 22:50:00,50.8,45.8,29.99,East,101,5.0,10.0,83,0.00,,,0.02,VWS V14.01,2013-02-12 04:50:00,
2013-02-11 22:52:00,51.3,45.0,29.99,East,83,6.0,8.0,79,0.00,,,0.02,VWS V14.01,2013-02-12 04:52:00,
2013-02-11 22:55:00,50.7,45.7,29.99,East,98,6.0,8.0,83,0.00,,,0.02,VWS V14.01,2013-02-12 04:55:00,
2013-02-11 22:57:00,51.3,45.0,29.99,East,79,7.0,10.0,79,0.00,,,0.02,VWS V14.01,2013-02-12 04:57:00,
2013-02-11 23:00:00,51.3,45.0,29.99,East,81,8.0,11.0,79,0.00,,,0.02,VWS V14.01,2013-02-12 05:00:00,
2013-02-11 23:05:00,51.2,45.2,29.99,ESE,106,9.0,11.0,80,0.00,,,0.02,VWS V14.01,2013-02-12 05:05:00,
2013-02-11 23:10:00,51.1,45.2,29.99,East,93,9.0,9.0,80,0.00,,,0.02,VWS V14.01,2013-02-12 05:10:00,
2013-02-11 23:15:00,51.1,45.2,29.99,East,90,7.0,10.0,80,0.00,,,0.02,VWS V14.01,2013-02-12 05:15:00,
2013-02-11 23:20:00,51.1,45.5,29.99,East,87,2.0,11.0,81,0.00,,,0.02,VWS V14.01,2013-02-12 05:20:00,
2013-02-11 23:25:00,51.0,45.4,29.99,ESE,113,8.0,10.0,81,0.00,,,0.02,VWS V14.01,2013-02-12 05:25:00,
2013-02-11 23:30:00,51.0,45.7,29.99,East,101,3.0,10.0,82,0.00,,,0.02,VWS V14.01,2013-02-12 05:30:00,
2013-02-11 23:35:00,51.0,45.7,29.99,ENE,76,8.0,11.0,82,0.00,,,0.02,VWS V14.01,2013-02-12 05:35:00,
2013-02-11 23:40:00,50.9,45.6,29.99,ESE,109,5.0,9.0,82,0.00,,,0.02,VWS V14.01,2013-02-12 05:40:00,
2013-02-11 23:45:00,50.9,45.6,29.99,East,96,7.0,9.0,82,0.00,,,0.02,VWS V14.01,2013-02-12 05:45:00,
2013-02-11 23:50:00,50.8,45.8,29.99,East,94,5.0,10.0,83,0.00,,,0.02,VWS V14.01,2013-02-12 05:50:00,
2013-02-11 23:55:00,50.7,45.7,29.99,East,84,6.0,8.0,83,0.00,,,0.02,VWS V14.01,2013-02-12 05:55:00,